Cross Roads, Texas
Current Conditions -  °F | °C
As of 8:35 PM on Thursday 20 Nov 2014 (Local Time) from KT35 Reporting Station
Overcast Overcast  
Wind Chill: 62°   Ceiling: 1100
Heat Index: 62°   Visibility: 10mi
Dew Point: 59°   Wind: 10mph
Humidity: 90%   Direction: 170°S
Pressure: 30.07"   Gusts: NA
Location:  30.8332°N, 96.9826°W
Report Text: KT35 210235Z AUTO 17009KT 10SM BKN011 OVC028 17/15 A3007 RMK AO2 T01680152
Loading
Personal Weather Stations






























Interactive Weather Map New forecast layout! Learn more

10-Day Weather Forecast

Advertisements
Track Severe Weather on mobile